Time;durP1;ratioP1;P1;durP2;ratioP2;P2;SDS_P1;SDS_P2;PMS_P1;PMS_P2;Temp;Humidity;BMP_temperature;BMP_pressure;BME280_temperature;BME280_humidity;BME280_pressure;Samples;Min_cycle;Max_cycle;Signal;HPM_P1;HPM_P2
2022/04/03 00:01:27;;;;;;;11.27;6.07;;;3.00;99.90;;;;;;5052622;28;20098;-69
2022/04/03 00:03:52;;;;;;;7.85;5.80;;;3.10;99.90;;;;;;5052667;28;20108;-69
2022/04/03 00:06:18;;;;;;;9.37;5.40;;;3.10;99.90;;;;;;5052811;28;20051;-69
2022/04/03 00:08:44;;;;;;;8.48;5.65;;;3.00;99.90;;;;;;5052951;28;20053;-68
2022/04/03 00:11:10;;;;;;;8.60;5.97;;;2.90;99.90;;;;;;5055601;28;20029;-68
2022/04/03 00:13:37;;;;;;;13.70;6.47;;;2.90;99.90;;;;;;5056762;28;20054;-68
2022/04/03 00:16:03;;;;;;;10.13;6.75;;;2.80;99.90;;;;;;5038381;28;20048;-68
2022/04/03 00:18:29;;;;;;;12.23;7.05;;;2.80;99.90;;;;;;5056587;28;20071;-68
2022/04/03 00:20:55;;;;;;;11.43;6.07;;;2.70;99.90;;;;;;5038347;28;20053;-68
2022/04/03 00:23:23;;;;;;;7.10;5.30;;;2.80;99.90;;;;;;5056420;28;20040;-68
2022/04/03 00:25:52;;;;;;;7.93;6.18;;;2.90;99.90;;;;;;5056590;28;20032;-68
2022/04/03 00:28:19;;;;;;;9.82;6.30;;;3.00;99.90;;;;;;5038164;28;20083;-69
2022/04/03 00:30:44;;;;;;;;;;;3.00;99.90;;;;;;5038607;28;20051;-69
2022/04/03 00:33:13;;;;;;;9.13;5.53;;;3.00;99.90;;;;;;5056232;28;19912;-69
2022/04/03 00:35:40;;;;;;;9.57;5.88;;;2.90;99.90;;;;;;5038499;28;20122;-68
2022/04/03 00:38:06;;;;;;;8.60;6.28;;;2.90;99.90;;;;;;5056114;28;20028;-68
2022/04/03 00:40:32;;;;;;;11.85;5.82;;;2.80;99.90;;;;;;5055853;28;20513;-67
2022/04/03 00:42:57;;;;;;;12.13;6.67;;;2.80;99.90;;;;;;5056073;28;20037;-68
2022/04/03 00:45:23;;;;;;;9.03;6.03;;;3.00;99.90;;;;;;5056259;28;20040;-69
2022/04/03 00:47:52;;;;;;;14.32;8.20;;;2.90;99.90;;;;;;5056570;28;20530;-68
2022/04/03 00:50:18;;;;;;;13.40;7.05;;;2.90;99.90;;;;;;5039449;28;20550;-68
2022/04/03 00:52:44;;;;;;;10.90;6.03;;;2.80;99.90;;;;;;5039592;28;20025;-69
2022/04/03 00:55:10;;;;;;;10.45;6.03;;;2.70;99.90;;;;;;5039511;28;20260;-70
2022/04/03 00:57:36;;;;;;;10.68;6.53;;;2.60;99.90;;;;;;5056228;28;20503;-68
2022/04/03 01:00:04;;;;;;;9.27;6.25;;;2.70;99.90;;;;;;5055601;28;20032;-68
2022/04/03 01:02:30;;;;;;;11.57;6.70;;;2.50;99.90;;;;;;5055699;28;20143;-68
2022/04/03 01:04:56;;;;;;;;;;;2.50;99.90;;;;;;5038076;28;20056;-68
2022/04/03 01:07:22;;;;;;;10.00;6.18;;;2.40;99.90;;;;;;5055614;28;19954;-68
2022/04/03 01:09:48;;;;;;;11.38;6.25;;;2.40;99.90;;;;;;5037644;28;20471;-68
2022/04/03 01:12:14;;;;;;;10.37;6.77;;;2.30;99.90;;;;;;5055348;28;20064;-69
2022/04/03 01:14:43;;;;;;;12.40;6.43;;;2.30;99.90;;;;;;5037617;28;20021;-68
2022/04/03 01:17:13;;;;;;;9.57;6.30;;;2.20;99.90;;;;;;5055550;28;20082;-68
2022/04/03 01:19:39;;;;;;;10.63;6.07;;;2.20;99.90;;;;;;5037287;28;20018;-68
2022/04/03 01:22:05;;;;;;;8.65;6.13;;;2.10;99.90;;;;;;5054517;28;20025;-68
2022/04/03 01:24:31;;;;;;;11.90;6.25;;;2.10;99.90;;;;;;5055167;28;20111;-68
2022/04/03 01:26:56;;;;;;;10.93;6.70;;;2.10;99.90;;;;;;5055152;28;20099;-68
2022/04/03 01:29:23;;;;;;;12.17;6.70;;;2.00;99.90;;;;;;5054971;28;20491;-69
2022/04/03 01:31:50;;;;;;;12.13;6.68;;;2.00;99.90;;;;;;5055336;28;20294;-69
2022/04/03 01:34:16;;;;;;;;;;;2.00;99.90;;;;;;5055938;28;20021;-68
2022/04/03 01:36:43;;;;;;;9.63;6.75;;;2.00;99.90;;;;;;5038206;28;19904;-68
2022/04/03 01:39:11;;;;;;;;;;;2.00;99.90;;;;;;5038517;28;20079;-68
2022/04/03 01:41:42;;;;;;;10.80;6.65;;;2.00;99.90;;;;;;5056646;28;19951;-68
2022/04/03 01:44:09;;;;;;;10.07;6.60;;;2.10;99.90;;;;;;5054997;28;20419;-68
2022/04/03 01:46:37;;;;;;;11.43;6.63;;;2.10;99.90;;;;;;5054853;28;20021;-68
2022/04/03 01:49:04;;;;;;;9.07;6.72;;;2.10;99.90;;;;;;5037118;28;20064;-68
2022/04/03 01:51:30;;;;;;;9.75;6.47;;;2.20;99.90;;;;;;5054614;28;20025;-68
2022/04/03 01:53:56;;;;;;;9.60;6.28;;;2.10;99.90;;;;;;5054756;28;20549;-70
2022/04/03 01:56:22;;;;;;;8.57;5.65;;;2.10;99.90;;;;;;5054535;28;20071;-67
2022/04/03 01:58:48;;;;;;;11.30;6.67;;;2.10;99.90;;;;;;5054705;28;20049;-68
2022/04/03 02:01:13;;;;;;;10.23;5.73;;;2.10;99.90;;;;;;5054469;28;20114;-68
2022/04/03 02:03:39;;;;;;;10.63;6.30;;;2.20;99.90;;;;;;5054528;28;20020;-67
2022/04/03 02:06:05;;;;;;;10.48;5.57;;;2.10;99.90;;;;;;5054474;28;20087;-68
2022/04/03 02:08:31;;;;;;;11.00;6.82;;;2.10;99.90;;;;;;5054740;28;20040;-67
2022/04/03 02:10:58;;;;;;;10.27;6.38;;;2.10;99.90;;;;;;5054097;28;20120;-68
2022/04/03 02:13:24;;;;;;;9.75;6.13;;;2.10;99.90;;;;;;5037205;28;20025;-68
2022/04/03 02:15:49;;;;;;;10.68;6.70;;;2.10;99.90;;;;;;5055536;28;20077;-68
2022/04/03 02:18:15;;;;;;;10.50;6.23;;;2.10;99.90;;;;;;5054314;28;20427;-68
2022/04/03 02:20:41;;;;;;;9.90;5.95;;;2.10;99.90;;;;;;5053979;28;20482;-67
2022/04/03 02:23:07;;;;;;;9.13;5.80;;;2.10;99.90;;;;;;5053925;28;20116;-67
2022/04/03 02:25:32;;;;;;;9.90;6.67;;;2.10;99.90;;;;;;5053949;28;20052;-68
2022/04/03 02:28:01;;;;;;;9.73;6.63;;;2.10;99.90;;;;;;5053952;28;20033;-68
2022/04/03 02:30:26;;;;;;;15.73;6.20;;;2.10;99.90;;;;;;5053682;28;20275;-69
2022/04/03 02:32:52;;;;;;;10.37;6.13;;;2.00;99.90;;;;;;5053802;28;20384;-69
2022/04/03 02:35:18;;;;;;;10.88;6.30;;;2.00;99.90;;;;;;5053857;28;20021;-68
2022/04/03 02:37:44;;;;;;;13.45;6.35;;;2.00;99.90;;;;;;5053796;28;20036;-69
2022/04/03 02:40:13;;;;;;;9.60;6.22;;;2.00;99.90;;;;;;5054204;28;20036;-68
2022/04/03 02:42:40;;;;;;;11.80;6.30;;;2.00;99.90;;;;;;5054025;28;20102;-69
2022/04/03 02:45:07;;;;;;;11.00;6.22;;;2.00;99.90;;;;;;5053523;28;20542;-69
2022/04/03 02:47:33;;;;;;;10.82;5.95;;;2.00;99.90;;;;;;5053442;28;20541;-68
2022/04/03 02:49:59;;;;;;;10.48;5.95;;;2.10;99.90;;;;;;5053464;28;20483;-69
2022/04/03 02:52:25;;;;;;;10.45;6.60;;;2.10;99.90;;;;;;5053395;28;20035;-69
2022/04/03 02:54:51;;;;;;;12.05;6.57;;;2.10;99.90;;;;;;5035779;28;20113;-69
2022/04/03 02:57:17;;;;;;;10.90;6.10;;;2.10;99.90;;;;;;5053938;28;20029;-69
2022/04/03 02:59:44;;;;;;;13.13;6.05;;;2.10;99.90;;;;;;5036581;28;20025;-69
2022/04/03 03:02:10;;;;;;;8.77;5.60;;;2.10;99.90;;;;;;5036832;28;20082;-69
2022/04/03 03:04:36;;;;;;;;;;;2.10;99.90;;;;;;5054155;28;20036;-69
2022/04/03 03:07:03;;;;;;;10.50;5.82;;;2.10;99.90;;;;;;5053471;28;19904;-69
2022/04/03 03:09:28;;;;;;;11.00;6.15;;;2.00;99.90;;;;;;5053223;28;20510;-68
2022/04/03 03:11:54;;;;;;;11.80;6.70;;;2.00;99.90;;;;;;5053152;28;20025;-68
2022/04/03 03:14:20;;;;;;;8.63;5.40;;;2.10;99.90;;;;;;5053455;28;20025;-69
2022/04/03 03:16:45;;;;;;;9.70;6.40;;;2.00;99.90;;;;;;5053377;28;20021;-68
2022/04/03 03:19:11;;;;;;;15.10;8.17;;;2.00;99.90;;;;;;5053139;28;20020;-68
2022/04/03 03:21:37;;;;;;;11.57;6.82;;;2.00;99.90;;;;;;5035210;28;20028;-68
2022/04/03 03:24:03;;;;;;;11.80;6.73;;;2.00;99.90;;;;;;5054132;28;20033;-68
2022/04/03 03:26:29;;;;;;;9.20;6.47;;;2.00;99.90;;;;;;5054795;28;20497;-69
2022/04/03 03:28:54;;;;;;;10.43;6.18;;;2.00;99.90;;;;;;5036323;28;20120;-69
2022/04/03 03:31:20;;;;;;;10.23;5.90;;;2.00;99.90;;;;;;5036407;28;20116;-69
2022/04/03 03:33:47;;;;;;;12.80;6.20;;;2.00;99.90;;;;;;5053045;28;20060;-68
2022/04/03 03:36:13;;;;;;;9.93;6.60;;;1.90;99.90;;;;;;5052731;28;20385;-68
2022/04/03 03:38:39;;;;;;;9.93;6.03;;;1.90;99.90;;;;;;5052700;28;20101;-68
2022/04/03 03:41:05;;;;;;;9.60;6.43;;;1.90;99.90;;;;;;5053037;28;20032;-68
2022/04/03 03:43:30;;;;;;;11.90;6.67;;;1.90;99.90;;;;;;5052954;28;20048;-68
2022/04/03 03:45:56;;;;;;;11.30;6.60;;;2.00;99.90;;;;;;5034702;28;20155;-69
2022/04/03 03:48:23;;;;;;;10.02;6.65;;;2.00;99.90;;;;;;5080793;23;20036;-69
2022/04/03 03:50:49;;;;;;;9.23;6.13;;;2.00;99.90;;;;;;5053859;28;20471;-69
2022/04/03 03:53:15;;;;;;;11.57;6.23;;;2.00;99.90;;;;;;5053801;28;20025;-69
2022/04/03 03:55:40;;;;;;;11.43;6.63;;;2.00;99.90;;;;;;5053210;28;20051;-68
2022/04/03 03:58:06;;;;;;;10.03;5.73;;;2.00;99.90;;;;;;5053130;28;20737;-68
2022/04/03 04:00:32;;;;;;;9.93;5.82;;;2.00;99.90;;;;;;5053427;28;20024;-69
2022/04/03 04:02:57;;;;;;;11.13;6.17;;;2.00;99.90;;;;;;5053519;28;20031;-69
2022/04/03 04:05:23;;;;;;;9.87;6.30;;;2.00;99.90;;;;;;5053330;28;20071;-69
2022/04/03 04:07:49;;;;;;;14.17;6.87;;;2.00;99.90;;;;;;5053203;28;20501;-70
2022/04/03 04:10:16;;;;;;;18.23;6.65;;;2.10;99.90;;;;;;5038343;28;20021;-70
2022/04/03 04:12:43;;;;;;;12.05;6.80;;;2.00;99.90;;;;;;5053404;28;20056;-69
2022/04/03 04:15:09;;;;;;;10.65;6.35;;;2.00;99.90;;;;;;5052935;28;20063;-69
2022/04/03 04:17:38;;;;;;;9.77;6.55;;;2.10;99.90;;;;;;5034985;28;20017;-70
2022/04/03 04:20:11;;;;;;;12.43;7.05;;;2.10;99.90;;;;;;5034990;28;20029;-70
2022/04/03 04:22:37;;;;;;;12.02;6.88;;;2.10;99.90;;;;;;5053373;28;20159;-70
2022/04/03 04:25:03;;;;;;;14.52;6.07;;;2.00;99.90;;;;;;5053005;28;20486;-69
2022/04/03 04:27:28;;;;;;;10.50;6.55;;;2.00;99.90;;;;;;5034919;28;20036;-70
2022/04/03 04:29:54;;;;;;;10.03;6.47;;;2.00;99.90;;;;;;5053063;28;20030;-70
2022/04/03 04:32:21;;;;;;;10.60;6.87;;;2.00;99.90;;;;;;5053712;28;20060;-70
2022/04/03 04:34:48;;;;;;;10.27;6.32;;;2.00;99.90;;;;;;5035310;28;20364;-70
2022/04/03 04:37:13;;;;;;;11.68;6.45;;;2.00;99.90;;;;;;5052788;28;20127;-70
2022/04/03 04:39:39;;;;;;;10.30;6.37;;;2.00;99.90;;;;;;5052779;28;20047;-70
2022/04/03 04:42:05;;;;;;;10.87;7.37;;;2.00;99.90;;;;;;5052689;28;20029;-70
2022/04/03 04:44:30;;;;;;;11.52;6.93;;;2.00;99.90;;;;;;5052912;28;20036;-70
2022/04/03 04:46:56;;;;;;;9.47;5.87;;;2.10;99.90;;;;;;5034867;28;20479;-70
2022/04/03 04:49:21;;;;;;;10.13;6.20;;;2.10;99.90;;;;;;5053540;28;20072;-70
2022/04/03 04:51:47;;;;;;;13.60;8.43;;;2.10;99.90;;;;;;5052736;28;20021;-70
2022/04/03 04:54:13;;;;;;;11.33;7.17;;;2.10;99.90;;;;;;5052784;28;20021;-70
2022/04/03 04:56:39;;;;;;;10.83;6.80;;;2.10;99.90;;;;;;5053710;28;20029;-71
2022/04/03 04:59:05;;;;;;;;;;;2.10;99.90;;;;;;5056941;28;20020;-70
2022/04/03 05:01:30;;;;;;;8.52;5.95;;;2.10;99.90;;;;;;5056111;28;19905;-70
2022/04/03 05:03:56;;;;;;;9.10;5.70;;;2.00;99.90;;;;;;5038440;28;20175;-71
2022/04/03 05:06:26;;;;;;;9.35;5.95;;;2.00;99.90;;;;;;5056515;28;20025;-70
2022/04/03 05:08:55;;;;;;;12.93;6.22;;;2.00;99.90;;;;;;5056274;28;20031;-70
2022/04/03 05:11:22;;;;;;;8.85;6.45;;;2.00;99.90;;;;;;5037895;28;20028;-70
2022/04/03 05:13:47;;;;;;;11.35;6.50;;;2.00;99.90;;;;;;5055985;28;20099;-70
2022/04/03 05:16:15;;;;;;;9.87;5.97;;;2.00;99.90;;;;;;5056181;28;20383;-70
2022/04/03 05:18:41;;;;;;;8.73;6.10;;;2.00;99.90;;;;;;5055902;28;20040;-69
2022/04/03 05:21:08;;;;;;;10.37;6.30;;;2.00;99.90;;;;;;5056319;28;20049;-70
2022/04/03 05:23:33;;;;;;;9.80;6.07;;;2.00;99.90;;;;;;5055627;28;20549;-70
2022/04/03 05:25:59;;;;;;;11.27;6.13;;;2.00;99.90;;;;;;5039788;28;20032;-70
2022/04/03 05:28:26;;;;;;;13.50;6.13;;;2.00;99.90;;;;;;5057840;28;20033;-70
2022/04/03 05:30:52;;;;;;;9.60;6.15;;;1.90;99.90;;;;;;5056727;28;20104;-70
2022/04/03 05:33:18;;;;;;;10.00;5.97;;;1.90;99.90;;;;;;5055760;28;20360;-69
2022/04/03 05:35:44;;;;;;;10.60;7.00;;;1.90;99.90;;;;;;5055423;28;20058;-69
2022/04/03 05:38:09;;;;;;;10.30;6.15;;;1.90;99.90;;;;;;5055392;28;20017;-69
2022/04/03 05:40:35;;;;;;;10.53;6.33;;;1.90;99.90;;;;;;5038962;28;20021;-70
2022/04/03 05:43:01;;;;;;;11.60;6.90;;;1.90;99.90;;;;;;5037532;28;20275;-70
2022/04/03 05:45:27;;;;;;;10.23;6.35;;;2.00;99.90;;;;;;5037479;28;20021;-70
2022/04/03 05:47:53;;;;;;;12.68;6.70;;;2.00;99.90;;;;;;5054943;28;20029;-70
2022/04/03 05:50:19;;;;;;;13.10;6.10;;;2.10;99.90;;;;;;5037518;28;20475;-71
2022/04/03 05:52:47;;;;;;;10.25;6.63;;;2.10;99.90;;;;;;5055101;28;20454;-69
2022/04/03 05:55:16;;;;;;;10.77;6.20;;;2.20;99.90;;;;;;5055136;28;20017;-70
2022/04/03 05:57:42;;;;;;;11.15;6.70;;;2.20;99.90;;;;;;5055242;28;20029;-70
2022/04/03 06:00:12;;;;;;;10.43;6.53;;;2.20;99.90;;;;;;5055128;28;20475;-70
2022/04/03 06:02:56;;;;;;;10.30;6.70;;;2.20;99.90;;;;;;5055450;28;20475;-70
2022/04/03 06:05:24;;;;;;;9.30;6.07;;;2.30;99.90;;;;;;5055276;28;20031;-70
2022/04/03 06:07:50;;;;;;;10.23;6.43;;;2.30;99.90;;;;;;5055420;28;20035;-70
2022/04/03 06:10:18;;;;;;;11.48;5.97;;;2.20;99.90;;;;;;5038345;28;20056;-70
2022/04/03 06:13:04;;;;;;;10.10;5.85;;;2.20;99.90;;;;;;5037695;28;20033;-71
2022/04/03 06:15:42;;;;;;;9.27;6.13;;;2.20;99.90;;;;;;5037358;28;20032;-70
2022/04/03 06:18:10;;;;;;;10.48;6.30;;;2.30;99.90;;;;;;5054928;28;20534;-70
2022/04/03 06:20:36;;;;;;;9.82;5.57;;;2.40;99.90;;;;;;5037147;28;20112;-70
2022/04/03 06:23:03;;;;;;;8.82;5.95;;;2.50;99.90;;;;;;5054780;28;20028;-70
2022/04/03 06:25:29;;;;;;;12.23;5.97;;;2.50;99.90;;;;;;5054713;28;20056;-70
2022/04/03 06:27:55;;;;;;;7.68;5.68;;;2.60;99.90;;;;;;5054634;28;20021;-70
2022/04/03 06:30:21;;;;;;;16.93;7.00;;;2.60;99.90;;;;;;5036951;28;20043;-69
2022/04/03 06:32:47;;;;;;;;;;;2.60;99.90;;;;;;5037737;28;20290;-70
2022/04/03 06:35:13;;;;;;;11.60;6.50;;;2.70;99.90;;;;;;5036824;28;19905;-69
2022/04/03 06:37:39;;;;;;;9.48;5.72;;;2.90;99.90;;;;;;5054737;28;20021;-69
2022/04/03 06:40:07;;;;;;;10.02;5.93;;;3.00;99.90;;;;;;5036910;28;20060;-68
2022/04/03 06:42:33;;;;;;;12.05;6.15;;;3.10;99.90;;;;;;5054628;28;20036;-70
2022/04/03 06:45:00;;;;;;;7.43;5.32;;;3.20;99.90;;;;;;5037883;28;20479;-70
2022/04/03 06:47:25;;;;;;;;;;;3.30;99.90;;;;;;5044955;28;20049;-70
2022/04/03 06:49:51;;;;;;;7.53;5.53;;;3.40;99.90;;;;;;5061229;28;19908;-70
2022/04/03 06:52:17;;;;;;;9.00;5.60;;;3.40;99.90;;;;;;5055151;28;20021;-69
2022/04/03 06:54:44;;;;;;;8.05;5.13;;;3.40;99.90;;;;;;5054437;28;20139;-70
2022/04/03 06:57:12;;;;;;;7.15;5.43;;;3.40;99.90;;;;;;5037305;28;20052;-71
2022/04/03 06:59:38;;;;;;;7.30;5.32;;;3.50;99.90;;;;;;5057528;28;20025;-70
2022/04/03 07:02:04;;;;;;;7.83;5.53;;;3.40;99.90;;;;;;5039291;28;20124;-69
2022/04/03 07:04:29;;;;;;;9.00;5.63;;;3.40;99.90;;;;;;5055157;28;20399;-70
2022/04/03 07:06:55;;;;;;;7.87;5.40;;;3.40;99.90;;;;;;5055119;28;20025;-70
2022/04/03 07:09:20;;;;;;;7.60;5.23;;;3.50;99.90;;;;;;5060835;28;20039;-69
2022/04/03 07:11:46;;;;;;;7.60;4.77;;;3.50;99.90;;;;;;5038345;28;20545;-69
2022/04/03 07:14:12;;;;;;;13.80;5.53;;;3.40;99.90;;;;;;5055388;28;20041;-70
2022/04/03 07:16:37;;;;;;;7.30;5.53;;;3.50;99.90;;;;;;5036463;28;20499;-70
2022/04/03 07:19:04;;;;;;;8.30;5.60;;;3.50;99.90;;;;;;5053680;28;20029;-69
2022/04/03 07:21:30;;;;;;;9.70;5.03;;;3.50;99.90;;;;;;5053557;28;20021;-70
2022/04/03 07:23:56;;;;;;;9.03;5.80;;;3.50;99.90;;;;;;5053914;28;20036;-68
2022/04/03 07:26:22;;;;;;;7.32;5.05;;;3.50;99.90;;;;;;5053833;28;20017;-68
2022/04/03 07:28:48;;;;;;;8.53;4.30;;;3.50;99.90;;;;;;5057400;28;20029;-70
2022/04/03 07:31:14;;;;;;;6.68;4.00;;;3.60;99.90;;;;;;5056597;28;20040;-69
2022/04/03 07:33:40;;;;;;;4.50;3.58;;;3.60;99.90;;;;;;5054595;28;20497;-68
2022/04/03 07:36:05;;;;;;;7.30;4.40;;;3.60;99.90;;;;;;5035599;28;20054;-68
2022/04/03 07:38:31;;;;;;;7.57;3.90;;;3.60;99.90;;;;;;5053518;28;20071;-68
2022/04/03 07:40:57;;;;;;;6.80;3.80;;;3.70;99.90;;;;;;5037610;28;20264;-68
2022/04/03 07:43:23;;;;;;;7.57;3.87;;;3.70;99.90;;;;;;5054963;28;20079;-69
2022/04/03 07:45:49;;;;;;;4.70;3.38;;;3.80;99.90;;;;;;5053915;28;20251;-68
2022/04/03 07:48:16;;;;;;;5.93;3.93;;;4.00;99.90;;;;;;5052943;28;20399;-68
2022/04/03 07:50:42;;;;;;;5.15;3.28;;;4.20;99.90;;;;;;5052873;28;20263;-68
2022/04/03 07:53:08;;;;;;;5.97;3.60;;;4.40;99.90;;;;;;5035342;28;20111;-68
2022/04/03 07:55:34;;;;;;;6.03;3.97;;;4.50;99.90;;;;;;5035292;28;20049;-68
2022/04/03 07:58:00;;;;;;;7.22;3.95;;;4.60;99.90;;;;;;5052933;28;20066;-68
2022/04/03 08:00:25;;;;;;;8.20;3.93;;;4.80;99.90;;;;;;5053544;28;20029;-68
2022/04/03 08:02:51;;;;;;;7.30;3.90;;;4.90;99.90;;;;;;5053822;28;20057;-68
2022/04/03 08:05:16;;;;;;;6.50;3.93;;;5.10;99.90;;;;;;5053169;28;20050;-68
2022/04/03 08:07:44;;;;;;;8.17;3.97;;;5.30;99.90;;;;;;5053060;28;20029;-67
2022/04/03 08:10:15;;;;;;;5.85;3.67;;;5.40;99.90;;;;;;5053774;28;20394;-68
2022/04/03 08:12:42;;;;;;;5.53;3.53;;;5.60;99.90;;;;;;5053330;28;20024;-68
2022/04/03 08:15:10;;;;;;;5.38;3.30;;;5.60;99.90;;;;;;5034773;28;20480;-68
2022/04/03 08:17:39;;;;;;;4.85;3.65;;;5.40;99.90;;;;;;5052455;28;20467;-67
2022/04/03 08:20:10;;;;;;;4.35;3.00;;;5.40;99.90;;;;;;5052817;28;20044;-68
2022/04/03 08:22:37;;;;;;;5.28;3.13;;;5.20;99.90;;;;;;5034852;28;20141;-68
2022/04/03 08:25:05;;;;;;;5.53;3.47;;;5.20;99.90;;;;;;5035237;28;20052;-68
2022/04/03 08:27:51;;;;;;;4.82;3.17;;;5.20;99.90;;;;;;5034818;28;20032;-67
2022/04/03 08:30:26;;;;;;;6.77;3.17;;;5.00;99.90;;;;;;5052892;28;20035;-68
2022/04/03 08:32:52;;;;;;;5.47;3.05;;;5.10;99.90;;;;;;5056472;28;20286;-68
2022/04/03 08:35:19;;;;;;;7.57;3.40;;;4.90;99.90;;;;;;5039214;28;20112;-68
2022/04/03 08:37:46;;;;;;;5.82;3.67;;;4.90;99.90;;;;;;5057339;28;20026;-68
2022/04/03 08:40:12;;;;;;;5.13;3.22;;;4.70;99.90;;;;;;5056953;28;20078;-68
2022/04/03 08:42:39;;;;;;;6.28;3.42;;;4.70;99.90;;;;;;5038387;28;20102;-69
2022/04/03 08:45:07;;;;;;;4.70;2.90;;;4.60;99.90;;;;;;5056303;28;20029;-68
2022/04/03 08:47:42;;;;;;;4.22;2.90;;;4.70;99.90;;;;;;5038422;28;20439;-68
2022/04/03 08:50:08;;;;;;;4.72;3.17;;;4.70;99.90;;;;;;5057260;28;20375;-68
2022/04/03 08:52:36;;;;;;;7.17;3.13;;;4.70;99.90;;;;;;5058400;28;20116;-68
2022/04/03 08:55:04;;;;;;;5.80;3.00;;;4.80;99.90;;;;;;5040384;28;20057;-68
2022/04/03 08:57:30;;;;;;;4.80;3.10;;;5.90;98.70;;;;;;5056223;28;20138;-69
2022/04/03 08:59:56;;;;;;;4.20;2.92;;;6.30;98.60;;;;;;5056228;28;20025;-66
2022/04/03 09:02:22;;;;;;;4.70;2.80;;;6.50;97.40;;;;;;5055963;28;20423;-67
2022/04/03 09:04:48;;;;;;;6.90;2.73;;;6.20;97.60;;;;;;5056138;28;20108;-67
2022/04/03 09:07:21;;;;;;;8.63;3.43;;;6.00;97.10;;;;;;5055842;28;20660;-66
2022/04/03 09:09:59;;;;;;;4.10;3.03;;;5.70;97.30;;;;;;5038087;28;20284;-67
2022/04/03 09:12:26;;;;;;;4.05;2.60;;;5.40;98.00;;;;;;5037858;28;20123;-67
2022/04/03 09:14:53;;;;;;;6.38;4.13;;;5.40;98.90;;;;;;5056001;28;20016;-68
2022/04/03 09:17:42;;;;;;;5.07;3.35;;;5.30;98.70;;;;;;5057329;28;20028;-69
2022/04/03 09:20:14;;;;;;;4.95;3.20;;;5.20;99.30;;;;;;5038666;28;20016;-68
2022/04/03 09:22:43;;;;;;;4.03;2.47;;;5.10;99.30;;;;;;5055626;28;20483;-68
2022/04/03 09:25:13;;;;;;;4.05;2.47;;;4.90;97.80;;;;;;5039448;28;20060;-69
2022/04/03 09:27:51;;;;;;;6.07;3.08;;;4.80;97.70;;;;;;5041390;28;20025;-69
2022/04/03 09:30:21;;;;;;;4.85;2.92;;;4.70;99.00;;;;;;5060886;28;20064;-67
2022/04/03 09:32:51;;;;;;;5.47;3.20;;;4.60;99.90;;;;;;5044396;28;20033;-69
2022/04/03 09:35:19;;;;;;;4.72;2.92;;;4.60;99.90;;;;;;5060480;28;20096;-68
2022/04/03 09:38:14;;;;;;;5.05;2.80;;;4.70;99.90;;;;;;5057959;28;20024;-69
2022/04/03 09:40:48;;;;;;;5.82;2.70;;;4.70;99.90;;;;;;5040510;28;20486;-68
2022/04/03 09:43:13;;;;;;;3.53;2.35;;;4.80;99.90;;;;;;5058107;28;20017;-68
2022/04/03 09:45:49;;;;;;;4.70;2.97;;;4.90;99.90;;;;;;5038208;28;20078;-68
2022/04/03 09:48:20;;;;;;;4.28;3.13;;;4.90;99.90;;;;;;5037645;28;20041;-68
2022/04/03 09:51:04;;;;;;;4.60;2.65;;;5.00;99.80;;;;;;5061437;28;20025;-68
2022/04/03 09:53:40;;;;;;;4.15;2.97;;;5.00;98.70;;;;;;5056113;28;20024;-68
2022/04/03 09:56:07;;;;;;;6.03;3.25;;;5.00;99.90;;;;;;5077590;23;20094;-65
2022/04/03 09:58:50;;;;;;;5.85;3.60;;;5.00;99.90;;;;;;5055168;28;20017;-64
2022/04/03 10:01:35;;;;;;;5.93;3.72;;;5.00;99.90;;;;;;5055194;28;20605;-65
2022/04/03 10:04:03;;;;;;;7.65;4.13;;;4.80;99.90;;;;;;5037166;28;20044;-63
2022/04/03 10:06:30;;;;;;;5.68;3.13;;;4.60;99.90;;;;;;5054992;28;20028;-63
2022/04/03 10:08:57;;;;;;;6.55;3.33;;;4.60;99.90;;;;;;5037138;28;20028;-65
2022/04/03 10:11:24;;;;;;;6.38;3.35;;;4.70;99.90;;;;;;5054993;28;20033;-64
2022/04/03 10:13:49;;;;;;;6.70;3.17;;;4.70;99.90;;;;;;5054702;28;20075;-63
2022/04/03 10:16:17;;;;;;;4.90;2.92;;;4.60;99.90;;;;;;5054732;28;20424;-64
2022/04/03 10:18:44;;;;;;;5.43;2.90;;;4.50;99.90;;;;;;5054789;28;20029;-64
2022/04/03 10:21:27;;;;;;;6.90;3.20;;;4.50;99.90;;;;;;5054779;28;20048;-65
2022/04/03 10:23:59;;;;;;;6.25;3.45;;;4.50;99.90;;;;;;5054562;28;20024;-66
2022/04/03 10:26:26;;;;;;;7.60;3.58;;;4.50;99.90;;;;;;5054583;28;20070;-65
2022/04/03 10:28:55;;;;;;;5.03;3.30;;;4.40;99.90;;;;;;5054636;28;20056;-64
2022/04/03 10:31:21;;;;;;;7.53;3.92;;;4.30;99.90;;;;;;5054706;28;20021;-64
2022/04/03 10:33:51;;;;;;;4.68;3.25;;;4.20;99.90;;;;;;5036916;28;20079;-65
2022/04/03 10:36:27;;;;;;;5.78;3.50;;;4.20;99.80;;;;;;5037039;28;20029;-62
2022/04/03 10:39:08;;;;;;;5.95;2.95;;;4.10;99.90;;;;;;5054313;28;20025;-62
2022/04/03 10:41:43;;;;;;;5.75;3.50;;;4.10;99.90;;;;;;5036524;28;20445;-66
2022/04/03 10:44:24;;;;;;;6.28;3.67;;;4.10;99.90;;;;;;5054918;28;20021;-64
2022/04/03 10:47:05;;;;;;;9.57;4.03;;;4.00;99.90;;;;;;5036977;28;20032;-67
2022/04/03 10:49:46;;;;;;;6.53;3.53;;;4.10;99.90;;;;;;5036939;28;20491;-66
2022/04/03 10:52:46;;;;;;;8.15;3.80;;;4.10;99.90;;;;;;5036174;28;20502;-64
2022/04/03 10:55:15;;;;;;;11.05;4.72;;;4.00;99.90;;;;;;5052873;28;20031;-63
2022/04/03 10:57:48;;;;;;;6.28;4.30;;;3.90;99.90;;;;;;5054378;28;20055;-66
2022/04/03 11:00:14;;;;;;;5.45;3.75;;;3.80;99.90;;;;;;5053770;28;20017;-64
2022/04/03 11:02:51;;;;;;;9.83;4.57;;;3.80;99.90;;;;;;5053833;28;20113;-64
2022/04/03 11:05:22;;;;;;;;;;;3.80;99.90;;;;;;5054656;28;20029;-63
2022/04/03 11:07:48;;;;;;;8.15;4.72;;;3.80;99.90;;;;;;5054103;28;19912;-64
2022/04/03 11:10:14;;;;;;;6.33;3.97;;;3.80;99.90;;;;;;5054180;28;20033;-63
2022/04/03 11:12:55;;;;;;;5.97;3.45;;;3.80;99.90;;;;;;5053484;28;20060;-64
2022/04/03 11:15:23;;;;;;;7.65;4.43;;;3.80;99.90;;;;;;5035695;28;20391;-63
2022/04/03 11:17:52;;;;;;;5.43;3.83;;;3.90;99.90;;;;;;5053898;28;20025;-63
2022/04/03 11:20:32;;;;;;;5.75;3.90;;;3.90;99.90;;;;;;5035790;28;20021;-60
2022/04/03 11:22:59;;;;;;;6.13;3.88;;;4.00;99.90;;;;;;5053596;28;20505;-64
2022/04/03 11:25:24;;;;;;;;;;;4.00;99.90;;;;;;5053901;28;20091;-64
2022/04/03 11:27:50;;;;;;;5.93;3.67;;;3.90;99.90;;;;;;5053603;28;20279;-63
2022/04/03 11:30:18;;;;;;;7.57;3.90;;;4.00;99.90;;;;;;5053665;28;20056;-64
2022/04/03 11:32:46;;;;;;;8.88;4.38;;;4.20;99.90;;;;;;5053779;28;20369;-65
2022/04/03 11:35:12;;;;;;;6.32;3.70;;;4.30;99.90;;;;;;5053902;28;20048;-65
2022/04/03 11:37:45;;;;;;;5.67;3.63;;;4.40;99.90;;;;;;5053550;28;20075;-64
2022/04/03 11:40:12;;;;;;;5.82;3.67;;;4.60;99.90;;;;;;5054147;28;20021;-64
2022/04/03 11:42:38;;;;;;;6.47;3.55;;;4.60;99.90;;;;;;5035827;28;20029;-64
2022/04/03 11:45:07;;;;;;;4.88;3.58;;;4.70;99.90;;;;;;5035611;28;20039;-65
2022/04/03 11:47:33;;;;;;;5.43;3.35;;;4.80;99.90;;;;;;5053415;28;20033;-64
2022/04/03 11:50:11;;;;;;;9.38;3.90;;;4.80;98.20;;;;;;5053345;28;20082;-65
2022/04/03 11:52:38;;;;;;;9.63;4.60;;;4.80;98.00;;;;;;5053464;28;20059;-64
2022/04/03 11:55:10;;;;;;;9.30;5.60;;;4.90;98.70;;;;;;5053084;28;20029;-64
2022/04/03 11:57:36;;;;;;;6.50;4.47;;;5.10;98.60;;;;;;5053872;28;20056;-65
2022/04/03 12:00:02;;;;;;;6.80;4.00;;;5.30;98.90;;;;;;5053169;28;20021;-65
2022/04/03 12:02:28;;;;;;;5.20;4.10;;;5.50;99.00;;;;;;5052822;28;20036;-65
2022/04/03 12:04:57;;;;;;;6.50;3.50;;;5.60;99.80;;;;;;5053066;28;20107;-66
2022/04/03 12:07:23;;;;;;;8.90;4.28;;;5.60;99.60;;;;;;5056612;28;20025;-64
2022/04/03 12:09:49;;;;;;;6.80;4.00;;;5.60;99.90;;;;;;5039129;28;20029;-64
2022/04/03 12:12:22;;;;;;;5.20;3.92;;;5.70;99.90;;;;;;5057194;28;20033;-66
2022/04/03 12:14:47;;;;;;;8.82;4.60;;;5.60;99.50;;;;;;5038876;28;20025;-66
2022/04/03 12:17:15;;;;;;;5.80;3.60;;;5.60;99.90;;;;;;5057103;28;20025;-65
2022/04/03 12:19:47;;;;;;;5.15;3.50;;;5.70;98.10;;;;;;5057415;28;20368;-64
2022/04/03 12:22:14;;;;;;;5.07;3.15;;;5.70;97.60;;;;;;5057019;28;20070;-65
2022/04/03 12:24:41;;;;;;;5.00;3.70;;;5.60;95.80;;;;;;5056862;28;20025;-65
2022/04/03 12:27:12;;;;;;;4.55;3.28;;;5.40;96.50;;;;;;5056870;28;20059;-66
2022/04/03 12:29:38;;;;;;;6.47;3.60;;;5.40;97.20;;;;;;5039029;28;20513;-66
2022/04/03 12:32:05;;;;;;;;;;;5.50;97.40;;;;;;5057425;28;20020;-65
2022/04/03 12:34:37;;;;;;;7.57;4.40;;;5.60;97.20;;;;;;5057071;28;19909;-66
2022/04/03 12:37:05;;;;;;;4.32;3.63;;;5.90;98.00;;;;;;5039595;28;20021;-66
2022/04/03 12:39:33;;;;;;;6.25;3.90;;;6.00;96.60;;;;;;5058238;28;20025;-66
2022/04/03 12:42:13;;;;;;;10.43;4.93;;;6.20;95.90;;;;;;5056652;28;20025;-66
2022/04/03 12:44:50;;;;;;;8.57;4.50;;;6.30;95.00;;;;;;5038606;28;20025;-66
2022/04/03 12:47:34;;;;;;;7.97;3.42;;;6.30;94.10;;;;;;5038313;28;20548;-66
2022/04/03 12:50:11;;;;;;;4.82;3.22;;;6.30;94.00;;;;;;5056593;28;20028;-66
2022/04/03 12:52:39;;;;;;;;;;;6.50;94.10;;;;;;5056892;28;20033;-65
2022/04/03 12:55:21;;;;;;;5.32;3.20;;;6.60;93.40;;;;;;5056334;28;19912;-66
2022/04/03 13:00:56;;;;;;;4.65;3.42;;;6.80;91.10;;;;;;5051754;28;20070;-69
2022/04/03 13:03:49;;;;;;;8.13;3.30;;;6.90;91.70;;;;;;5056726;28;20032;-69
2022/04/03 13:06:28;;;;;;;4.65;3.22;;;7.00;91.30;;;;;;5046647;28;20037;-67